Details for Norwegian Air Shuttle at EKCH




Go Back


Latest METAR
Local Time

EKCH 252150Z 05005KT CAVOK 16/10 Q1025 NOSIG

26/05/2018, 00:18:15

Description
Results
Norwegian Air Shuttle Logo
Number of Pilots based at EKCH
0 Pilots Based here
Number of Norwegian Air Shuttle Flights Departed from EKCH
4 Flights Departed
Number of Norwegian Air Shuttle Flights Arrived at EKCH
3 Flights Arrived
Number of Norwegian Air Shuttle Schedules Departing from EKCH
23 Schedules
Number of Norwegian Air Shuttle Schedules Arriving at EKCH
24 Schedules
Number of Norwegian Air Shuttle Schedules Departing from EKCH availible today
8 Schedules Today
Number of Norwegian Air Shuttle Schedules Arriving at EKCH availible today
9 Schedules Today
Average Landing Rate at EKCH
-224 fpm
Norwegian Air Shuttle Average Landing Rate at EKCH
-150 fpm
Total Fuel Purchased at EKCH by Norwegian Air Shuttle
13,462.16 kgs / 29,678.68 lbs

Pilots Based at EKCH


Pilot ID
Pilot Name
Pilot Rank
No. of Flights
No. of Flying Hours
There are no pilots assigned to this hub!   Will you be the first?
Content